sensor_id;sensor_type;location;lat;lon;timestamp;P1;durP1;ratioP1;P2;durP2;ratioP2
49460;SDS011;35355;49.198;-0.368;2023-05-20T00:01:55;24.60;;;3.67;;
49460;SDS011;35355;49.198;-0.368;2023-05-20T00:04:21;19.23;;;4.65;;
49460;SDS011;35355;49.198;-0.368;2023-05-20T00:06:46;23.80;;;5.18;;
49460;SDS011;35355;49.198;-0.368;2023-05-20T00:09:11;16.38;;;4.85;;
49460;SDS011;35355;49.198;-0.368;2023-05-20T00:11:37;18.58;;;4.78;;
49460;SDS011;35355;49.198;-0.368;2023-05-20T00:14:02;16.27;;;5.05;;
49460;SDS011;35355;49.198;-0.368;2023-05-20T00:16:27;18.05;;;5.00;;
49460;SDS011;35355;49.198;-0.368;2023-05-20T00:18:53;22.65;;;4.53;;
49460;SDS011;35355;49.198;-0.368;2023-05-20T00:21:18;21.73;;;5.18;;
49460;SDS011;35355;49.198;-0.368;2023-05-20T00:23:43;34.47;;;6.10;;
49460;SDS011;35355;49.198;-0.368;2023-05-20T00:26:09;17.30;;;4.68;;
49460;SDS011;35355;49.198;-0.368;2023-05-20T00:28:35;28.48;;;5.63;;
49460;SDS011;35355;49.198;-0.368;2023-05-20T00:31:00;18.60;;;4.45;;
49460;SDS011;35355;49.198;-0.368;2023-05-20T00:33:25;20.17;;;4.90;;
49460;SDS011;35355;49.198;-0.368;2023-05-20T00:35:51;23.67;;;4.35;;
49460;SDS011;35355;49.198;-0.368;2023-05-20T00:38:16;16.67;;;4.38;;
49460;SDS011;35355;49.198;-0.368;2023-05-20T00:40:41;23.90;;;4.30;;
49460;SDS011;35355;49.198;-0.368;2023-05-20T00:43:07;17.98;;;3.88;;
49460;SDS011;35355;49.198;-0.368;2023-05-20T00:45:33;20.67;;;5.32;;
49460;SDS011;35355;49.198;-0.368;2023-05-20T00:47:58;21.40;;;4.32;;
49460;SDS011;35355;49.198;-0.368;2023-05-20T00:50:25;15.32;;;4.43;;
49460;SDS011;35355;49.198;-0.368;2023-05-20T00:52:51;19.73;;;4.75;;
49460;SDS011;35355;49.198;-0.368;2023-05-20T00:55:19;30.02;;;5.45;;
49460;SDS011;35355;49.198;-0.368;2023-05-20T00:57:45;28.40;;;4.68;;
49460;SDS011;35355;49.198;-0.368;2023-05-20T01:00:10;14.43;;;4.13;;
49460;SDS011;35355;49.198;-0.368;2023-05-20T01:02:37;19.75;;;4.50;;
49460;SDS011;35355;49.198;-0.368;2023-05-20T01:05:03;22.30;;;5.60;;
49460;SDS011;35355;49.198;-0.368;2023-05-20T01:07:29;17.65;;;4.57;;
49460;SDS011;35355;49.198;-0.368;2023-05-20T01:09:55;21.63;;;4.25;;
49460;SDS011;35355;49.198;-0.368;2023-05-20T01:15:00;27.13;;;6.07;;
49460;SDS011;35355;49.198;-0.368;2023-05-20T01:17:32;19.25;;;4.03;;
49460;SDS011;35355;49.198;-0.368;2023-05-20T01:20:02;21.92;;;4.78;;
49460;SDS011;35355;49.198;-0.368;2023-05-20T01:22:31;21.15;;;5.82;;
49460;SDS011;35355;49.198;-0.368;2023-05-20T01:24:56;13.45;;;4.45;;
49460;SDS011;35355;49.198;-0.368;2023-05-20T01:27:22;24.50;;;4.53;;
49460;SDS011;35355;49.198;-0.368;2023-05-20T01:29:48;15.90;;;4.90;;
49460;SDS011;35355;49.198;-0.368;2023-05-20T01:35:01;22.95;;;5.30;;
49460;SDS011;35355;49.198;-0.368;2023-05-20T01:37:27;21.02;;;4.25;;
49460;SDS011;35355;49.198;-0.368;2023-05-20T01:39:55;25.52;;;4.93;;
49460;SDS011;35355;49.198;-0.368;2023-05-20T01:42:21;23.13;;;4.05;;
49460;SDS011;35355;49.198;-0.368;2023-05-20T01:44:48;15.55;;;4.35;;
49460;SDS011;35355;49.198;-0.368;2023-05-20T01:47:13;20.02;;;4.90;;
49460;SDS011;35355;49.198;-0.368;2023-05-20T01:49:38;16.80;;;3.97;;
49460;SDS011;35355;49.198;-0.368;2023-05-20T01:52:04;15.85;;;3.78;;
49460;SDS011;35355;49.198;-0.368;2023-05-20T01:54:30;22.85;;;4.80;;
49460;SDS011;35355;49.198;-0.368;2023-05-20T01:56:55;23.67;;;4.88;;
49460;SDS011;35355;49.198;-0.368;2023-05-20T01:59:21;25.25;;;6.15;;
49460;SDS011;35355;49.198;-0.368;2023-05-20T02:01:46;26.50;;;5.05;;
49460;SDS011;35355;49.198;-0.368;2023-05-20T02:04:11;15.13;;;4.50;;
49460;SDS011;35355;49.198;-0.368;2023-05-20T02:06:37;24.42;;;4.63;;
49460;SDS011;35355;49.198;-0.368;2023-05-20T02:09:02;20.90;;;4.65;;
49460;SDS011;35355;49.198;-0.368;2023-05-20T02:11:28;24.70;;;4.90;;
49460;SDS011;35355;49.198;-0.368;2023-05-20T02:13:53;19.33;;;5.03;;
49460;SDS011;35355;49.198;-0.368;2023-05-20T02:16:18;19.70;;;4.68;;
49460;SDS011;35355;49.198;-0.368;2023-05-20T02:18:44;23.15;;;5.63;;
49460;SDS011;35355;49.198;-0.368;2023-05-20T02:21:09;30.73;;;5.13;;
49460;SDS011;35355;49.198;-0.368;2023-05-20T02:23:34;17.85;;;3.95;;
49460;SDS011;35355;49.198;-0.368;2023-05-20T02:26:00;24.77;;;5.13;;
49460;SDS011;35355;49.198;-0.368;2023-05-20T02:28:26;24.13;;;4.70;;
49460;SDS011;35355;49.198;-0.368;2023-05-20T02:30:51;24.20;;;5.57;;
49460;SDS011;35355;49.198;-0.368;2023-05-20T02:33:17;28.95;;;5.75;;
49460;SDS011;35355;49.198;-0.368;2023-05-20T02:35:43;26.75;;;5.72;;
49460;SDS011;35355;49.198;-0.368;2023-05-20T02:38:09;24.70;;;5.38;;
49460;SDS011;35355;49.198;-0.368;2023-05-20T02:40:35;20.23;;;3.70;;
49460;SDS011;35355;49.198;-0.368;2023-05-20T02:43:00;19.38;;;3.75;;
49460;SDS011;35355;49.198;-0.368;2023-05-20T02:45:26;20.33;;;4.80;;
49460;SDS011;35355;49.198;-0.368;2023-05-20T02:47:51;21.83;;;4.97;;
49460;SDS011;35355;49.198;-0.368;2023-05-20T02:50:16;26.15;;;5.07;;
49460;SDS011;35355;49.198;-0.368;2023-05-20T02:52:42;26.23;;;4.90;;
49460;SDS011;35355;49.198;-0.368;2023-05-20T02:55:07;14.70;;;3.88;;
49460;SDS011;35355;49.198;-0.368;2023-05-20T02:57:34;26.85;;;4.63;;
49460;SDS011;35355;49.198;-0.368;2023-05-20T03:00:02;16.08;;;4.60;;
49460;SDS011;35355;49.198;-0.368;2023-05-20T03:02:32;19.55;;;4.15;;
49460;SDS011;35355;49.198;-0.368;2023-05-20T03:04:58;19.73;;;3.88;;
49460;SDS011;35355;49.198;-0.368;2023-05-20T03:07:23;29.45;;;5.75;;
49460;SDS011;35355;49.198;-0.368;2023-05-20T03:09:49;27.15;;;4.20;;
49460;SDS011;35355;49.198;-0.368;2023-05-20T03:12:14;16.60;;;3.05;;
49460;SDS011;35355;49.198;-0.368;2023-05-20T03:14:39;17.48;;;3.92;;
49460;SDS011;35355;49.198;-0.368;2023-05-20T03:17:05;29.80;;;5.35;;
49460;SDS011;35355;49.198;-0.368;2023-05-20T03:19:30;21.58;;;4.03;;
49460;SDS011;35355;49.198;-0.368;2023-05-20T03:21:56;21.90;;;4.13;;
49460;SDS011;35355;49.198;-0.368;2023-05-20T03:24:22;21.00;;;4.10;;
49460;SDS011;35355;49.198;-0.368;2023-05-20T03:26:47;19.25;;;3.63;;
49460;SDS011;35355;49.198;-0.368;2023-05-20T03:29:13;21.40;;;3.67;;
49460;SDS011;35355;49.198;-0.368;2023-05-20T03:31:38;18.92;;;3.08;;
49460;SDS011;35355;49.198;-0.368;2023-05-20T03:34:03;15.27;;;3.70;;
49460;SDS011;35355;49.198;-0.368;2023-05-20T03:36:29;27.92;;;4.53;;
49460;SDS011;35355;49.198;-0.368;2023-05-20T03:38:55;22.98;;;3.67;;
49460;SDS011;35355;49.198;-0.368;2023-05-20T03:41:20;23.55;;;3.60;;
49460;SDS011;35355;49.198;-0.368;2023-05-20T03:43:46;18.60;;;3.80;;
49460;SDS011;35355;49.198;-0.368;2023-05-20T03:46:11;14.60;;;4.07;;
49460;SDS011;35355;49.198;-0.368;2023-05-20T03:48:37;29.02;;;4.65;;
49460;SDS011;35355;49.198;-0.368;2023-05-20T03:51:02;25.00;;;4.35;;
49460;SDS011;35355;49.198;-0.368;2023-05-20T03:53:27;23.15;;;4.28;;
49460;SDS011;35355;49.198;-0.368;2023-05-20T03:55:53;20.40;;;5.35;;
49460;SDS011;35355;49.198;-0.368;2023-05-20T03:58:18;27.80;;;5.25;;
49460;SDS011;35355;49.198;-0.368;2023-05-20T04:00:44;18.15;;;3.90;;
49460;SDS011;35355;49.198;-0.368;2023-05-20T04:03:11;25.20;;;4.75;;
49460;SDS011;35355;49.198;-0.368;2023-05-20T04:05:37;22.38;;;4.28;;
49460;SDS011;35355;49.198;-0.368;2023-05-20T04:08:02;29.60;;;5.35;;
49460;SDS011;35355;49.198;-0.368;2023-05-20T04:10:28;27.90;;;4.63;;
49460;SDS011;35355;49.198;-0.368;2023-05-20T04:12:56;18.95;;;4.30;;
49460;SDS011;35355;49.198;-0.368;2023-05-20T04:15:21;28.08;;;4.95;;
49460;SDS011;35355;49.198;-0.368;2023-05-20T04:17:47;21.08;;;4.88;;
49460;SDS011;35355;49.198;-0.368;2023-05-20T04:20:14;16.90;;;3.70;;
49460;SDS011;35355;49.198;-0.368;2023-05-20T04:22:39;14.45;;;3.97;;
49460;SDS011;35355;49.198;-0.368;2023-05-20T04:25:05;29.80;;;5.43;;
49460;SDS011;35355;49.198;-0.368;2023-05-20T04:27:31;25.63;;;4.90;;
49460;SDS011;35355;49.198;-0.368;2023-05-20T04:30:01;23.13;;;4.40;;
49460;SDS011;35355;49.198;-0.368;2023-05-20T04:32:28;26.63;;;4.53;;
49460;SDS011;35355;49.198;-0.368;2023-05-20T04:34:54;18.83;;;4.28;;
49460;SDS011;35355;49.198;-0.368;2023-05-20T04:37:20;31.95;;;6.32;;
49460;SDS011;35355;49.198;-0.368;2023-05-20T04:39:46;23.98;;;4.82;;
49460;SDS011;35355;49.198;-0.368;2023-05-20T04:42:14;25.35;;;4.85;;
49460;SDS011;35355;49.198;-0.368;2023-05-20T04:44:41;27.42;;;4.97;;
49460;SDS011;35355;49.198;-0.368;2023-05-20T04:47:09;23.35;;;5.70;;
49460;SDS011;35355;49.198;-0.368;2023-05-20T04:49:35;20.88;;;5.18;;
49460;SDS011;35355;49.198;-0.368;2023-05-20T04:52:02;25.10;;;5.18;;
49460;SDS011;35355;49.198;-0.368;2023-05-20T04:54:28;26.80;;;5.45;;
49460;SDS011;35355;49.198;-0.368;2023-05-20T04:56:54;24.92;;;5.88;;
49460;SDS011;35355;49.198;-0.368;2023-05-20T04:59:20;17.75;;;5.47;;
49460;SDS011;35355;49.198;-0.368;2023-05-20T05:01:46;26.08;;;5.60;;
49460;SDS011;35355;49.198;-0.368;2023-05-20T05:04:11;26.17;;;6.40;;
49460;SDS011;35355;49.198;-0.368;2023-05-20T05:06:36;20.75;;;5.43;;
49460;SDS011;35355;49.198;-0.368;2023-05-20T05:09:02;31.83;;;5.60;;
49460;SDS011;35355;49.198;-0.368;2023-05-20T05:11:27;23.38;;;5.78;;
49460;SDS011;35355;49.198;-0.368;2023-05-20T05:13:53;15.77;;;5.40;;
49460;SDS011;35355;49.198;-0.368;2023-05-20T05:16:19;30.60;;;6.47;;
49460;SDS011;35355;49.198;-0.368;2023-05-20T05:18:44;26.73;;;5.45;;
49460;SDS011;35355;49.198;-0.368;2023-05-20T05:21:10;24.80;;;5.78;;
49460;SDS011;35355;49.198;-0.368;2023-05-20T05:23:35;31.05;;;5.93;;
49460;SDS011;35355;49.198;-0.368;2023-05-20T05:26:00;23.08;;;6.07;;
49460;SDS011;35355;49.198;-0.368;2023-05-20T05:28:26;22.92;;;5.20;;
49460;SDS011;35355;49.198;-0.368;2023-05-20T05:30:53;26.98;;;6.13;;
49460;SDS011;35355;49.198;-0.368;2023-05-20T05:33:19;33.28;;;7.15;;
49460;SDS011;35355;49.198;-0.368;2023-05-20T05:35:45;28.33;;;6.55;;
49460;SDS011;35355;49.198;-0.368;2023-05-20T05:38:10;29.85;;;6.85;;
49460;SDS011;35355;49.198;-0.368;2023-05-20T05:40:35;27.33;;;6.72;;
49460;SDS011;35355;49.198;-0.368;2023-05-20T05:43:01;23.75;;;6.90;;
49460;SDS011;35355;49.198;-0.368;2023-05-20T05:45:26;28.63;;;7.65;;
49460;SDS011;35355;49.198;-0.368;2023-05-20T05:47:52;33.22;;;8.10;;
49460;SDS011;35355;49.198;-0.368;2023-05-20T05:50:18;27.35;;;6.85;;
49460;SDS011;35355;49.198;-0.368;2023-05-20T05:52:43;36.25;;;7.80;;
49460;SDS011;35355;49.198;-0.368;2023-05-20T05:55:09;33.55;;;8.10;;
49460;SDS011;35355;49.198;-0.368;2023-05-20T05:57:34;37.83;;;7.78;;
49460;SDS011;35355;49.198;-0.368;2023-05-20T06:00:00;23.05;;;6.63;;
49460;SDS011;35355;49.198;-0.368;2023-05-20T06:02:25;39.53;;;7.63;;
49460;SDS011;35355;49.198;-0.368;2023-05-20T06:04:51;26.35;;;7.80;;
49460;SDS011;35355;49.198;-0.368;2023-05-20T06:07:16;26.52;;;8.02;;
49460;SDS011;35355;49.198;-0.368;2023-05-20T06:09:42;28.38;;;8.40;;
49460;SDS011;35355;49.198;-0.368;2023-05-20T06:12:08;24.42;;;7.43;;
49460;SDS011;35355;49.198;-0.368;2023-05-20T06:14:33;28.52;;;8.40;;
49460;SDS011;35355;49.198;-0.368;2023-05-20T06:16:59;33.60;;;8.60;;
49460;SDS011;35355;49.198;-0.368;2023-05-20T06:19:24;29.30;;;7.57;;
49460;SDS011;35355;49.198;-0.368;2023-05-20T06:21:50;33.03;;;8.55;;
49460;SDS011;35355;49.198;-0.368;2023-05-20T06:24:15;30.17;;;8.98;;
49460;SDS011;35355;49.198;-0.368;2023-05-20T06:26:40;33.28;;;8.93;;
49460;SDS011;35355;49.198;-0.368;2023-05-20T06:29:06;29.20;;;7.53;;
49460;SDS011;35355;49.198;-0.368;2023-05-20T06:31:31;18.90;;;8.30;;
49460;SDS011;35355;49.198;-0.368;2023-05-20T06:33:57;28.95;;;7.97;;
49460;SDS011;35355;49.198;-0.368;2023-05-20T06:36:22;25.13;;;7.57;;
49460;SDS011;35355;49.198;-0.368;2023-05-20T06:38:48;29.75;;;9.00;;
49460;SDS011;35355;49.198;-0.368;2023-05-20T06:41:13;28.15;;;8.63;;
49460;SDS011;35355;49.198;-0.368;2023-05-20T06:43:39;35.58;;;7.47;;
49460;SDS011;35355;49.198;-0.368;2023-05-20T06:46:04;23.15;;;8.00;;
49460;SDS011;35355;49.198;-0.368;2023-05-20T06:48:30;22.17;;;7.10;;
49460;SDS011;35355;49.198;-0.368;2023-05-20T06:50:56;31.52;;;6.95;;
49460;SDS011;35355;49.198;-0.368;2023-05-20T06:53:21;17.02;;;7.32;;
49460;SDS011;35355;49.198;-0.368;2023-05-20T06:55:47;24.25;;;5.85;;
49460;SDS011;35355;49.198;-0.368;2023-05-20T06:58:12;32.75;;;7.00;;
49460;SDS011;35355;49.198;-0.368;2023-05-20T07:00:38;38.83;;;7.47;;
49460;SDS011;35355;49.198;-0.368;2023-05-20T07:03:03;27.17;;;7.32;;
49460;SDS011;35355;49.198;-0.368;2023-05-20T07:05:28;22.70;;;6.35;;
49460;SDS011;35355;49.198;-0.368;2023-05-20T07:07:55;20.45;;;6.13;;
49460;SDS011;35355;49.198;-0.368;2023-05-20T07:10:20;36.08;;;8.27;;
49460;SDS011;35355;49.198;-0.368;2023-05-20T07:12:46;26.23;;;6.38;;
49460;SDS011;35355;49.198;-0.368;2023-05-20T07:15:11;32.08;;;7.90;;
49460;SDS011;35355;49.198;-0.368;2023-05-20T07:17:36;23.08;;;7.60;;
49460;SDS011;35355;49.198;-0.368;2023-05-20T07:20:02;27.90;;;6.93;;
49460;SDS011;35355;49.198;-0.368;2023-05-20T07:22:28;26.35;;;6.72;;
49460;SDS011;35355;49.198;-0.368;2023-05-20T07:24:53;25.80;;;7.60;;
49460;SDS011;35355;49.198;-0.368;2023-05-20T07:27:19;32.13;;;6.82;;
49460;SDS011;35355;49.198;-0.368;2023-05-20T07:29:44;23.27;;;6.13;;
49460;SDS011;35355;49.198;-0.368;2023-05-20T07:32:10;23.20;;;6.35;;
49460;SDS011;35355;49.198;-0.368;2023-05-20T07:34:35;31.70;;;7.55;;
49460;SDS011;35355;49.198;-0.368;2023-05-20T07:37:01;26.95;;;6.97;;
49460;SDS011;35355;49.198;-0.368;2023-05-20T07:39:26;29.05;;;6.30;;
49460;SDS011;35355;49.198;-0.368;2023-05-20T07:41:52;24.63;;;6.22;;
49460;SDS011;35355;49.198;-0.368;2023-05-20T07:44:17;28.58;;;6.57;;
49460;SDS011;35355;49.198;-0.368;2023-05-20T07:46:43;26.08;;;5.90;;
49460;SDS011;35355;49.198;-0.368;2023-05-20T07:49:09;24.40;;;5.20;;
49460;SDS011;35355;49.198;-0.368;2023-05-20T07:51:35;24.73;;;6.00;;
49460;SDS011;35355;49.198;-0.368;2023-05-20T07:54:00;26.60;;;6.13;;
49460;SDS011;35355;49.198;-0.368;2023-05-20T07:56:26;29.15;;;7.55;;
49460;SDS011;35355;49.198;-0.368;2023-05-20T07:58:56;28.73;;;6.05;;
49460;SDS011;35355;49.198;-0.368;2023-05-20T08:01:25;22.20;;;6.43;;
49460;SDS011;35355;49.198;-0.368;2023-05-20T08:03:51;20.13;;;5.57;;
49460;SDS011;35355;49.198;-0.368;2023-05-20T08:06:16;21.55;;;6.55;;
49460;SDS011;35355;49.198;-0.368;2023-05-20T08:08:44;30.77;;;5.70;;
49460;SDS011;35355;49.198;-0.368;2023-05-20T08:11:10;29.85;;;8.07;;
49460;SDS011;35355;49.198;-0.368;2023-05-20T08:13:36;24.90;;;6.50;;
49460;SDS011;35355;49.198;-0.368;2023-05-20T08:16:01;34.92;;;7.03;;
49460;SDS011;35355;49.198;-0.368;2023-05-20T08:18:33;24.40;;;5.32;;
49460;SDS011;35355;49.198;-0.368;2023-05-20T08:21:01;23.48;;;6.50;;
49460;SDS011;35355;49.198;-0.368;2023-05-20T08:23:27;21.75;;;5.95;;
49460;SDS011;35355;49.198;-0.368;2023-05-20T08:25:53;30.90;;;6.57;;
49460;SDS011;35355;49.198;-0.368;2023-05-20T08:28:18;21.48;;;6.22;;
49460;SDS011;35355;49.198;-0.368;2023-05-20T08:30:43;25.00;;;6.38;;
49460;SDS011;35355;49.198;-0.368;2023-05-20T08:33:09;28.17;;;5.43;;
49460;SDS011;35355;49.198;-0.368;2023-05-20T08:35:35;22.38;;;5.88;;
49460;SDS011;35355;49.198;-0.368;2023-05-20T08:38:03;27.67;;;6.07;;
49460;SDS011;35355;49.198;-0.368;2023-05-20T08:40:29;29.77;;;7.35;;
49460;SDS011;35355;49.198;-0.368;2023-05-20T08:42:54;19.33;;;5.80;;
49460;SDS011;35355;49.198;-0.368;2023-05-20T08:45:21;20.33;;;5.70;;
49460;SDS011;35355;49.198;-0.368;2023-05-20T08:47:51;21.98;;;5.82;;
49460;SDS011;35355;49.198;-0.368;2023-05-20T08:50:17;27.45;;;5.25;;
49460;SDS011;35355;49.198;-0.368;2023-05-20T08:52:44;26.33;;;6.85;;
49460;SDS011;35355;49.198;-0.368;2023-05-20T08:55:17;26.27;;;5.93;;
49460;SDS011;35355;49.198;-0.368;2023-05-20T08:57:49;25.75;;;6.10;;
49460;SDS011;35355;49.198;-0.368;2023-05-20T09:00:15;28.75;;;5.65;;
49460;SDS011;35355;49.198;-0.368;2023-05-20T09:02:43;22.52;;;6.07;;
49460;SDS011;35355;49.198;-0.368;2023-05-20T09:05:10;18.05;;;5.70;;
49460;SDS011;35355;49.198;-0.368;2023-05-20T09:07:35;26.45;;;5.97;;
49460;SDS011;35355;49.198;-0.368;2023-05-20T09:10:01;21.77;;;5.70;;
49460;SDS011;35355;49.198;-0.368;2023-05-20T09:12:27;28.80;;;6.18;;
49460;SDS011;35355;49.198;-0.368;2023-05-20T09:14:52;28.48;;;7.40;;
49460;SDS011;35355;49.198;-0.368;2023-05-20T09:17:19;26.70;;;7.22;;
49460;SDS011;35355;49.198;-0.368;2023-05-20T09:19:46;27.58;;;5.93;;
49460;SDS011;35355;49.198;-0.368;2023-05-20T09:22:25;35.80;;;6.57;;
49460;SDS011;35355;49.198;-0.368;2023-05-20T09:24:52;26.15;;;6.57;;
49460;SDS011;35355;49.198;-0.368;2023-05-20T09:27:18;24.10;;;6.10;;
49460;SDS011;35355;49.198;-0.368;2023-05-20T09:29:45;22.30;;;6.30;;
49460;SDS011;35355;49.198;-0.368;2023-05-20T09:32:12;29.35;;;6.57;;
49460;SDS011;35355;49.198;-0.368;2023-05-20T09:34:38;21.95;;;6.18;;
49460;SDS011;35355;49.198;-0.368;2023-05-20T09:37:04;26.63;;;6.53;;
49460;SDS011;35355;49.198;-0.368;2023-05-20T09:39:32;28.70;;;6.78;;
49460;SDS011;35355;49.198;-0.368;2023-05-20T09:42:08;17.00;;;5.55;;
49460;SDS011;35355;49.198;-0.368;2023-05-20T09:44:40;26.48;;;7.30;;
49460;SDS011;35355;49.198;-0.368;2023-05-20T09:47:06;23.17;;;6.55;;
49460;SDS011;35355;49.198;-0.368;2023-05-20T09:49:33;25.60;;;6.53;;
49460;SDS011;35355;49.198;-0.368;2023-05-20T09:52:01;30.27;;;7.47;;
49460;SDS011;35355;49.198;-0.368;2023-05-20T09:54:27;20.80;;;5.93;;
49460;SDS011;35355;49.198;-0.368;2023-05-20T09:56:55;26.77;;;6.32;;
49460;SDS011;35355;49.198;-0.368;2023-05-20T09:59:23;26.45;;;6.97;;
49460;SDS011;35355;49.198;-0.368;2023-05-20T10:01:49;19.98;;;6.55;;
49460;SDS011;35355;49.198;-0.368;2023-05-20T10:04:15;27.77;;;6.50;;
49460;SDS011;35355;49.198;-0.368;2023-05-20T10:07:01;25.83;;;6.18;;
49460;SDS011;35355;49.198;-0.368;2023-05-20T10:17:47;33.97;;;7.20;;
49460;SDS011;35355;49.198;-0.368;2023-05-20T10:20:15;30.35;;;5.63;;
49460;SDS011;35355;49.198;-0.368;2023-05-20T10:22:41;27.25;;;5.57;;
49460;SDS011;35355;49.198;-0.368;2023-05-20T10:25:10;32.75;;;6.38;;
49460;SDS011;35355;49.198;-0.368;2023-05-20T10:27:46;33.22;;;5.78;;
49460;SDS011;35355;49.198;-0.368;2023-05-20T10:30:15;23.10;;;5.50;;
49460;SDS011;35355;49.198;-0.368;2023-05-20T10:32:50;23.50;;;5.47;;
49460;SDS011;35355;49.198;-0.368;2023-05-20T10:35:20;21.48;;;6.18;;
49460;SDS011;35355;49.198;-0.368;2023-05-20T10:37:50;25.13;;;5.97;;
49460;SDS011;35355;49.198;-0.368;2023-05-20T10:40:20;31.00;;;6.40;;
49460;SDS011;35355;49.198;-0.368;2023-05-20T10:42:46;18.48;;;6.03;;
49460;SDS011;35355;49.198;-0.368;2023-05-20T10:45:33;30.70;;;6.65;;
49460;SDS011;35355;49.198;-0.368;2023-05-20T10:48:01;27.25;;;5.72;;
49460;SDS011;35355;49.198;-0.368;2023-05-20T10:50:27;32.33;;;5.85;;
49460;SDS011;35355;49.198;-0.368;2023-05-20T10:53:04;25.40;;;6.43;;
49460;SDS011;35355;49.198;-0.368;2023-05-20T10:55:36;34.90;;;7.32;;
49460;SDS011;35355;49.198;-0.368;2023-05-20T10:58:05;25.35;;;5.57;;
49460;SDS011;35355;49.198;-0.368;2023-05-20T11:00:33;27.27;;;6.03;;
49460;SDS011;35355;49.198;-0.368;2023-05-20T11:03:00;23.88;;;5.20;;
49460;SDS011;35355;49.198;-0.368;2023-05-20T11:05:26;23.88;;;6.20;;
49460;SDS011;35355;49.198;-0.368;2023-05-20T11:08:03;26.27;;;6.45;;
49460;SDS011;35355;49.198;-0.368;2023-05-20T11:10:30;24.73;;;7.20;;
49460;SDS011;35355;49.198;-0.368;2023-05-20T11:12:56;19.48;;;5.47;;
49460;SDS011;35355;49.198;-0.368;2023-05-20T11:15:22;18.65;;;5.22;;
49460;SDS011;35355;49.198;-0.368;2023-05-20T11:17:59;27.70;;;6.18;;
49460;SDS011;35355;49.198;-0.368;2023-05-20T11:20:26;20.20;;;5.57;;
49460;SDS011;35355;49.198;-0.368;2023-05-20T11:22:53;29.27;;;7.15;;
49460;SDS011;35355;49.198;-0.368;2023-05-20T11:25:19;24.30;;;5.88;;
49460;SDS011;35355;49.198;-0.368;2023-05-20T11:27:46;22.60;;;5.50;;
49460;SDS011;35355;49.198;-0.368;2023-05-20T11:30:12;32.25;;;5.90;;
49460;SDS011;35355;49.198;-0.368;2023-05-20T11:32:42;25.90;;;5.75;;
49460;SDS011;35355;49.198;-0.368;2023-05-20T11:35:30;24.00;;;6.40;;
49460;SDS011;35355;49.198;-0.368;2023-05-20T11:38:02;26.98;;;5.95;;
49460;SDS011;35355;49.198;-0.368;2023-05-20T11:40:29;22.53;;;6.67;;
49460;SDS011;35355;49.198;-0.368;2023-05-20T11:42:56;22.70;;;5.88;;
49460;SDS011;35355;49.198;-0.368;2023-05-20T11:45:22;25.45;;;6.07;;
49460;SDS011;35355;49.198;-0.368;2023-05-20T11:48:04;28.33;;;6.43;;
49460;SDS011;35355;49.198;-0.368;2023-05-20T11:50:37;21.10;;;5.78;;
49460;SDS011;35355;49.198;-0.368;2023-05-20T11:53:08;17.85;;;4.90;;
49460;SDS011;35355;49.198;-0.368;2023-05-20T11:58:11;29.90;;;6.00;;
49460;SDS011;35355;49.198;-0.368;2023-05-20T12:00:40;21.60;;;5.13;;
49460;SDS011;35355;49.198;-0.368;2023-05-20T12:03:05;21.65;;;5.75;;
49460;SDS011;35355;49.198;-0.368;2023-05-20T12:05:30;26.52;;;6.18;;
49460;SDS011;35355;49.198;-0.368;2023-05-20T12:07:55;22.63;;;5.57;;
49460;SDS011;35355;49.198;-0.368;2023-05-20T12:10:21;27.05;;;5.25;;
49460;SDS011;35355;49.198;-0.368;2023-05-20T12:12:46;30.33;;;6.00;;
49460;SDS011;35355;49.198;-0.368;2023-05-20T12:15:12;28.52;;;6.55;;
49460;SDS011;35355;49.198;-0.368;2023-05-20T12:17:47;28.15;;;7.03;;
49460;SDS011;35355;49.198;-0.368;2023-05-20T12:20:15;33.67;;;5.70;;
49460;SDS011;35355;49.198;-0.368;2023-05-20T12:22:44;25.98;;;5.80;;
49460;SDS011;35355;49.198;-0.368;2023-05-20T12:25:10;29.25;;;5.68;;
49460;SDS011;35355;49.198;-0.368;2023-05-20T12:27:37;27.88;;;6.13;;
49460;SDS011;35355;49.198;-0.368;2023-05-20T12:30:03;24.13;;;5.38;;
49460;SDS011;35355;49.198;-0.368;2023-05-20T12:32:29;18.17;;;4.47;;
49460;SDS011;35355;49.198;-0.368;2023-05-20T12:34:54;22.25;;;6.28;;
49460;SDS011;35355;49.198;-0.368;2023-05-20T12:37:20;23.95;;;5.57;;
49460;SDS011;35355;49.198;-0.368;2023-05-20T12:39:46;27.77;;;5.80;;
49460;SDS011;35355;49.198;-0.368;2023-05-20T12:42:11;32.72;;;5.68;;
49460;SDS011;35355;49.198;-0.368;2023-05-20T12:44:36;26.95;;;5.55;;
49460;SDS011;35355;49.198;-0.368;2023-05-20T12:47:02;21.83;;;5.55;;
49460;SDS011;35355;49.198;-0.368;2023-05-20T12:49:27;20.67;;;5.00;;
49460;SDS011;35355;49.198;-0.368;2023-05-20T12:51:53;18.42;;;5.63;;
49460;SDS011;35355;49.198;-0.368;2023-05-20T12:54:18;26.08;;;5.60;;
49460;SDS011;35355;49.198;-0.368;2023-05-20T12:56:44;18.63;;;4.25;;
49460;SDS011;35355;49.198;-0.368;2023-05-20T12:59:11;19.38;;;4.53;;
49460;SDS011;35355;49.198;-0.368;2023-05-20T13:01:37;19.15;;;4.30;;
49460;SDS011;35355;49.198;-0.368;2023-05-20T13:04:03;23.25;;;5.85;;
49460;SDS011;35355;49.198;-0.368;2023-05-20T13:06:29;21.17;;;5.18;;
49460;SDS011;35355;49.198;-0.368;2023-05-20T13:08:55;20.00;;;5.38;;
49460;SDS011;35355;49.198;-0.368;2023-05-20T13:11:21;33.20;;;6.07;;
49460;SDS011;35355;49.198;-0.368;2023-05-20T13:13:46;22.15;;;4.30;;
49460;SDS011;35355;49.198;-0.368;2023-05-20T13:16:12;19.50;;;5.57;;
49460;SDS011;35355;49.198;-0.368;2023-05-20T13:18:37;24.23;;;4.63;;
49460;SDS011;35355;49.198;-0.368;2023-05-20T13:21:02;36.22;;;4.55;;
49460;SDS011;35355;49.198;-0.368;2023-05-20T13:23:28;28.13;;;4.47;;
49460;SDS011;35355;49.198;-0.368;2023-05-20T13:25:53;25.98;;;5.47;;
49460;SDS011;35355;49.198;-0.368;2023-05-20T13:28:18;26.15;;;4.95;;
49460;SDS011;35355;49.198;-0.368;2023-05-20T13:30:44;25.25;;;4.88;;
49460;SDS011;35355;49.198;-0.368;2023-05-20T13:33:10;23.92;;;4.78;;
49460;SDS011;35355;49.198;-0.368;2023-05-20T13:35:35;22.92;;;3.92;;
49460;SDS011;35355;49.198;-0.368;2023-05-20T13:38:01;15.38;;;4.38;;
49460;SDS011;35355;49.198;-0.368;2023-05-20T13:40:26;24.15;;;4.40;;
49460;SDS011;35355;49.198;-0.368;2023-05-20T13:42:52;16.50;;;3.78;;
49460;SDS011;35355;49.198;-0.368;2023-05-20T13:45:18;17.60;;;3.60;;
49460;SDS011;35355;49.198;-0.368;2023-05-20T13:47:43;23.00;;;4.07;;
49460;SDS011;35355;49.198;-0.368;2023-05-20T13:50:09;16.35;;;3.40;;
49460;SDS011;35355;49.198;-0.368;2023-05-20T13:52:35;26.10;;;4.32;;
49460;SDS011;35355;49.198;-0.368;2023-05-20T13:55:00;17.73;;;3.22;;
49460;SDS011;35355;49.198;-0.368;2023-05-20T13:57:25;21.73;;;3.30;;
49460;SDS011;35355;49.198;-0.368;2023-05-20T13:59:51;20.45;;;3.67;;
49460;SDS011;35355;49.198;-0.368;2023-05-20T14:02:17;19.92;;;4.03;;
49460;SDS011;35355;49.198;-0.368;2023-05-20T14:04:42;17.38;;;3.58;;
49460;SDS011;35355;49.198;-0.368;2023-05-20T14:07:10;13.55;;;3.22;;
49460;SDS011;35355;49.198;-0.368;2023-05-20T14:09:36;20.80;;;3.60;;
49460;SDS011;35355;49.198;-0.368;2023-05-20T14:12:02;18.05;;;3.67;;
49460;SDS011;35355;49.198;-0.368;2023-05-20T14:14:31;17.17;;;3.92;;
49460;SDS011;35355;49.198;-0.368;2023-05-20T14:16:56;20.52;;;3.33;;
49460;SDS011;35355;49.198;-0.368;2023-05-20T14:19:21;17.35;;;3.22;;
49460;SDS011;35355;49.198;-0.368;2023-05-20T14:21:47;15.25;;;3.03;;
49460;SDS011;35355;49.198;-0.368;2023-05-20T14:24:12;16.50;;;3.00;;
49460;SDS011;35355;49.198;-0.368;2023-05-20T14:26:37;25.40;;;4.03;;
49460;SDS011;35355;49.198;-0.368;2023-05-20T14:29:03;17.38;;;3.20;;
49460;SDS011;35355;49.198;-0.368;2023-05-20T14:31:28;12.93;;;2.92;;
49460;SDS011;35355;49.198;-0.368;2023-05-20T14:33:53;15.00;;;3.22;;